createdAt,value
2018-10-09T00:02:08.709Z,63.70
2018-10-09T00:06:12.434Z,64.20
2018-10-09T00:10:16.213Z,64.30
2018-10-09T00:14:19.916Z,64.00
2018-10-09T00:18:23.593Z,63.30
2018-10-09T00:22:27.288Z,63.80
2018-10-09T00:26:31.001Z,63.80
2018-10-09T00:30:34.769Z,63.80
2018-10-09T00:34:38.546Z,63.70
2018-10-09T00:38:42.237Z,63.80
2018-10-09T00:42:45.972Z,63.70
2018-10-09T00:46:49.687Z,63.80
2018-10-09T00:50:53.444Z,64.00
2018-10-09T00:54:57.197Z,63.90
2018-10-09T00:59:00.923Z,63.90
2018-10-09T01:03:04.819Z,63.80
2018-10-09T01:07:08.664Z,63.90
2018-10-09T01:11:12.496Z,63.90
2018-10-09T01:15:16.206Z,63.00
2018-10-09T01:19:19.908Z,63.80
2018-10-09T01:23:23.701Z,63.80
2018-10-09T01:27:27.406Z,63.10
2018-10-09T01:31:31.101Z,64.20
2018-10-09T01:35:34.841Z,64.10
2018-10-09T01:39:38.590Z,64.20
2018-10-09T01:43:42.292Z,64.20
2018-10-09T01:47:46.009Z,64.30
2018-10-09T01:51:49.797Z,64.50
2018-10-09T01:55:53.468Z,64.40
2018-10-09T01:59:57.248Z,64.80
2018-10-09T02:04:00.998Z,65.20
2018-10-09T02:08:04.721Z,64.90
2018-10-09T02:12:08.493Z,65.00
2018-10-09T02:16:12.211Z,65.00
2018-10-09T02:20:16.100Z,64.80
2018-10-09T02:24:19.794Z,64.80
2018-10-09T02:28:23.488Z,64.70
2018-10-09T02:32:27.189Z,64.70
2018-10-09T02:36:30.902Z,64.70
2018-10-09T02:40:34.758Z,64.60
2018-10-09T02:44:38.459Z,64.70
2018-10-09T02:48:42.287Z,63.90
2018-10-09T02:52:45.957Z,64.50
2018-10-09T02:56:49.683Z,64.50
2018-10-09T03:00:53.415Z,64.60
2018-10-09T03:04:57.110Z,65.70
2018-10-09T03:09:00.820Z,65.10
2018-10-09T03:13:04.502Z,65.20
2018-10-09T03:17:08.849Z,65.00
2018-10-09T03:21:12.641Z,65.10
2018-10-09T03:25:16.345Z,65.00
2018-10-09T03:29:20.045Z,65.00
2018-10-09T03:33:23.824Z,65.30
2018-10-09T03:37:27.563Z,65.10
2018-10-09T03:41:31.381Z,65.10
2018-10-09T03:45:35.167Z,65.50
2018-10-09T03:49:38.875Z,65.30
2018-10-09T03:53:42.544Z,65.30
2018-10-09T03:57:46.251Z,65.10
2018-10-09T04:01:49.958Z,65.50
2018-10-09T04:05:53.697Z,64.70
2018-10-09T04:09:57.476Z,65.30
2018-10-09T04:14:01.189Z,65.70
2018-10-09T04:18:04.916Z,66.20
2018-10-09T04:22:09.067Z,65.60
2018-10-09T04:26:12.822Z,65.60
2018-10-09T04:30:16.601Z,66.20
2018-10-09T04:34:20.342Z,66.60
2018-10-09T04:38:24.104Z,66.90
2018-10-09T04:42:27.812Z,66.00
2018-10-09T04:46:31.528Z,65.80
2018-10-09T04:50:35.259Z,65.70
2018-10-09T04:54:38.930Z,65.50
2018-10-09T04:58:42.635Z,65.40
2018-10-09T05:02:46.345Z,65.40
2018-10-09T05:06:50.109Z,65.50
2018-10-09T05:10:53.999Z,64.90
2018-10-09T05:14:57.670Z,65.90
2018-10-09T05:19:01.527Z,65.70
2018-10-09T05:23:05.358Z,65.50
2018-10-09T05:27:09.108Z,66.20
2018-10-09T05:31:12.901Z,66.20
2018-10-09T05:35:16.643Z,67.30
2018-10-09T05:39:20.353Z,66.00
2018-10-09T05:43:24.069Z,66.00
2018-10-09T05:47:27.778Z,65.90
2018-10-09T05:51:31.505Z,66.20
2018-10-09T05:55:35.989Z,66.10
2018-10-09T05:59:39.816Z,65.90
2018-10-09T06:03:43.543Z,66.00
2018-10-09T06:07:47.260Z,65.80
2018-10-09T06:11:50.969Z,65.80
2018-10-09T06:15:54.799Z,66.20
2018-10-09T06:19:58.517Z,66.10
2018-10-09T06:24:02.253Z,66.30
2018-10-09T06:28:06.728Z,66.20
2018-10-09T06:32:10.519Z,66.50
2018-10-09T06:36:14.238Z,66.50
2018-10-09T06:40:17.980Z,66.50
2018-10-09T06:44:22.530Z,66.30
2018-10-09T06:48:26.239Z,66.50
2018-10-09T06:52:30.109Z,66.40
2018-10-09T06:56:33.777Z,66.80
2018-10-09T07:00:37.535Z,67.10
2018-10-09T07:04:41.243Z,67.80
2018-10-09T07:08:45.010Z,67.10
2018-10-09T07:12:48.806Z,66.30
2018-10-09T07:16:52.478Z,67.00
2018-10-09T07:20:56.288Z,66.70
2018-10-09T07:24:59.986Z,67.00
2018-10-09T07:29:03.941Z,67.20
2018-10-09T07:33:07.757Z,67.30
2018-10-09T07:37:11.485Z,66.70
2018-10-09T07:41:15.227Z,67.70
2018-10-09T07:45:18.958Z,69.80
2018-10-09T07:49:22.774Z,68.30
2018-10-09T07:53:26.489Z,68.70
2018-10-09T07:57:30.198Z,68.70
2018-10-09T08:01:34.004Z,68.00
2018-10-09T08:05:37.764Z,69.50
2018-10-09T08:09:41.518Z,68.20
2018-10-09T08:13:45.273Z,68.40
2018-10-09T08:17:48.957Z,69.50
2018-10-09T08:21:52.710Z,69.10
2018-10-09T08:25:56.463Z,68.50
2018-10-09T08:30:00.278Z,68.50
2018-10-09T08:34:04.125Z,68.00
2018-10-09T08:38:07.826Z,68.40
2018-10-09T08:42:11.567Z,68.40
2018-10-09T08:46:15.518Z,68.10
2018-10-09T08:50:19.381Z,67.60
2018-10-09T08:54:23.163Z,67.60
2018-10-09T08:58:26.876Z,67.80
2018-10-09T09:02:30.754Z,68.30
2018-10-09T09:06:34.466Z,68.20
2018-10-09T09:10:38.326Z,68.40
2018-10-09T09:14:42.063Z,68.20
2018-10-09T09:18:45.773Z,68.20
2018-10-09T09:22:49.519Z,68.30
2018-10-09T09:26:53.330Z,68.20
2018-10-09T09:30:57.088Z,68.00
2018-10-09T09:35:00.829Z,68.80
2018-10-09T09:39:05.391Z,67.90
2018-10-09T09:43:09.180Z,67.70
2018-10-09T09:47:12.918Z,67.70
2018-10-09T09:51:16.639Z,67.80
2018-10-09T09:55:20.358Z,67.90
2018-10-09T09:59:24.091Z,67.10
2018-10-09T10:03:28.151Z,67.80
2018-10-09T10:07:31.972Z,67.70
2018-10-09T10:11:35.719Z,67.70
2018-10-09T10:15:39.567Z,67.40
2018-10-09T10:19:43.336Z,67.20
2018-10-09T10:23:47.200Z,67.30
2018-10-09T10:27:50.985Z,67.60
2018-10-09T10:31:54.714Z,67.40
2018-10-09T10:35:58.517Z,66.70
2018-10-09T10:40:02.258Z,66.70
2018-10-09T10:44:06.031Z,66.70
2018-10-09T10:48:09.766Z,66.70
2018-10-09T10:52:13.540Z,66.80
2018-10-09T10:56:17.323Z,66.90
2018-10-09T11:00:21.125Z,66.80
2018-10-09T11:04:24.843Z,66.80
2018-10-09T11:08:28.646Z,66.80
2018-10-09T11:12:32.788Z,66.00
2018-10-09T11:16:36.603Z,65.90
2018-10-09T11:20:40.312Z,66.80
2018-10-09T11:24:44.046Z,66.20
2018-10-09T11:28:47.801Z,66.70
2018-10-09T11:32:51.535Z,66.20
2018-10-09T11:36:55.277Z,66.30
2018-10-09T11:40:58.961Z,66.50
2018-10-09T11:45:02.673Z,66.10
2018-10-09T11:49:07.060Z,65.90
2018-10-09T11:53:10.781Z,65.80
2018-10-09T11:57:14.537Z,65.80
2018-10-09T12:01:18.329Z,65.60
2018-10-09T12:05:22.185Z,66.00
2018-10-09T12:09:25.882Z,65.70
2018-10-09T12:13:29.609Z,65.30
2018-10-09T12:17:33.354Z,65.90
2018-10-09T12:21:37.262Z,66.20
2018-10-09T12:25:40.974Z,66.50
2018-10-09T12:29:44.716Z,66.30
2018-10-09T12:33:48.506Z,65.80
2018-10-09T12:37:52.224Z,64.60
2018-10-09T12:41:56.027Z,64.70
2018-10-09T12:45:59.748Z,65.10
2018-10-09T12:50:03.533Z,65.60
2018-10-09T12:54:07.230Z,65.90
2018-10-09T12:58:10.984Z,65.80
2018-10-09T13:02:14.743Z,65.60
2018-10-09T13:06:18.475Z,65.80
2018-10-09T13:10:22.295Z,66.20
2018-10-09T13:14:25.993Z,65.20
2018-10-09T13:18:29.705Z,65.10
2018-10-09T13:22:33.587Z,65.30
2018-10-09T13:26:37.239Z,65.60
2018-10-09T13:30:41.028Z,64.60
2018-10-09T13:34:44.822Z,64.90
2018-10-09T13:38:48.614Z,65.40
2018-10-09T13:42:52.331Z,64.90
2018-10-09T13:46:56.486Z,64.50
2018-10-09T13:51:00.308Z,64.40
2018-10-09T13:55:04.149Z,64.80
2018-10-09T13:59:08.042Z,65.10
2018-10-09T14:03:11.864Z,65.00
2018-10-09T14:07:15.530Z,65.00
2018-10-09T14:11:19.235Z,65.20
2018-10-09T14:15:22.945Z,64.70
2018-10-09T14:19:26.652Z,63.90
2018-10-09T14:23:30.375Z,64.50
2018-10-09T14:27:34.122Z,64.60
2018-10-09T14:31:37.913Z,64.30
2018-10-09T14:35:41.665Z,64.00
2018-10-09T14:39:45.453Z,65.30
2018-10-09T14:43:49.308Z,65.60
2018-10-09T14:47:53.081Z,65.40
2018-10-09T14:51:56.826Z,64.30
2018-10-09T14:56:00.552Z,64.50
2018-10-09T15:00:04.391Z,65.00
2018-10-09T15:04:08.218Z,64.40
2018-10-09T15:08:11.969Z,64.10
2018-10-09T15:12:15.661Z,64.00
2018-10-09T15:16:19.386Z,63.80
2018-10-09T15:20:23.119Z,64.00
2018-10-09T15:24:26.857Z,63.80
2018-10-09T15:28:30.611Z,63.40
2018-10-09T15:32:34.300Z,63.40
2018-10-09T15:36:38.048Z,63.40
2018-10-09T15:40:41.920Z,63.60
2018-10-09T15:44:45.654Z,63.40
2018-10-09T15:48:49.397Z,63.30
2018-10-09T15:52:53.456Z,63.40
2018-10-09T15:56:57.160Z,63.30
2018-10-09T16:01:00.890Z,63.10
2018-10-09T16:05:04.658Z,63.10
2018-10-09T16:09:09.656Z,63.00
2018-10-09T16:13:13.389Z,63.00
2018-10-09T16:17:17.181Z,63.50
2018-10-09T16:21:20.902Z,62.90
2018-10-09T16:25:24.627Z,62.90
2018-10-09T16:29:28.342Z,63.00
2018-10-09T16:33:32.061Z,62.90
2018-10-09T16:37:35.983Z,63.00
2018-10-09T16:41:40.063Z,62.90
2018-10-09T16:45:43.793Z,62.90
2018-10-09T16:49:47.523Z,62.80
2018-10-09T16:53:51.256Z,62.80
2018-10-09T16:57:55.004Z,62.90
2018-10-09T17:01:58.722Z,62.60
2018-10-09T17:06:02.508Z,62.40
2018-10-09T17:10:06.269Z,63.00
2018-10-09T17:14:10.113Z,62.30
2018-10-09T17:18:13.881Z,63.20
2018-10-09T17:22:17.648Z,63.30
2018-10-09T17:26:21.401Z,63.40
2018-10-09T17:30:25.132Z,63.40
2018-10-09T17:34:28.910Z,63.40
2018-10-09T17:38:32.646Z,63.40
2018-10-09T17:42:36.788Z,63.50
2018-10-09T17:46:40.661Z,63.50
2018-10-09T17:50:44.324Z,63.50
2018-10-09T17:54:48.042Z,64.30
2018-10-09T17:58:51.750Z,63.70
2018-10-09T18:02:55.469Z,63.70
2018-10-09T18:06:59.190Z,63.70
2018-10-09T18:11:02.870Z,63.80
2018-10-09T18:15:06.792Z,64.00
2018-10-09T18:19:10.546Z,64.00
2018-10-09T18:23:14.317Z,64.70
2018-10-09T18:27:18.032Z,64.60
2018-10-09T18:31:21.725Z,64.80
2018-10-09T18:35:25.502Z,65.20
2018-10-09T18:39:29.288Z,64.80
2018-10-09T18:43:33.033Z,64.10
2018-10-09T18:47:43.637Z,64.70
2018-10-09T18:51:47.334Z,64.60
2018-10-09T18:55:51.054Z,64.60
2018-10-09T18:59:54.874Z,64.70
2018-10-09T19:03:58.592Z,64.60
2018-10-09T19:08:02.308Z,64.70
2018-10-09T19:12:06.016Z,64.70
2018-10-09T19:16:09.732Z,64.50
2018-10-09T19:20:13.482Z,64.60
2018-10-09T19:24:17.230Z,64.50
2018-10-09T19:28:20.942Z,64.50
2018-10-09T19:32:24.668Z,64.60
2018-10-09T19:36:28.501Z,64.50
2018-10-09T19:40:32.690Z,64.40
2018-10-09T19:44:36.405Z,64.40
2018-10-09T19:48:40.130Z,64.40
2018-10-09T19:52:43.825Z,65.30
2018-10-09T19:56:47.530Z,64.60
2018-10-09T20:00:51.285Z,64.30
2018-10-09T20:04:55.057Z,64.60
2018-10-09T20:08:58.770Z,64.70
2018-10-09T20:13:02.490Z,64.80
2018-10-09T20:17:06.248Z,65.00
2018-10-09T20:21:10.093Z,64.90
2018-10-09T20:25:13.887Z,64.80
2018-10-09T20:29:17.607Z,64.80
2018-10-09T20:33:21.354Z,64.70
2018-10-09T20:37:25.069Z,64.80
2018-10-09T20:41:28.775Z,64.90
2018-10-09T20:45:32.550Z,64.90
2018-10-09T20:49:36.266Z,65.00
2018-10-09T20:53:39.958Z,64.90
2018-10-09T20:57:43.675Z,64.90
2018-10-09T21:01:47.510Z,65.00
2018-10-09T21:05:51.231Z,65.00
2018-10-09T21:09:54.988Z,65.00
2018-10-09T21:13:58.686Z,65.20
2018-10-09T21:18:02.591Z,65.20
2018-10-09T21:22:06.193Z,65.10
2018-10-09T21:26:09.922Z,65.10
2018-10-09T21:30:13.689Z,65.00
2018-10-09T21:34:17.452Z,65.20
2018-10-09T21:38:21.148Z,65.20
2018-10-09T21:42:24.877Z,65.20
2018-10-09T21:46:28.634Z,65.20
2018-10-09T21:50:32.490Z,65.20
2018-10-09T21:54:36.179Z,66.00
2018-10-09T21:58:39.899Z,64.50
2018-10-09T22:02:43.605Z,65.30
2018-10-09T22:06:47.322Z,65.30
2018-10-09T22:10:51.145Z,65.40
2018-10-09T22:14:54.822Z,65.30
2018-10-09T22:18:58.614Z,65.30
2018-10-09T22:23:02.333Z,65.40
2018-10-09T22:27:06.157Z,65.50
2018-10-09T22:31:09.884Z,65.50
2018-10-09T22:35:13.666Z,65.60
2018-10-09T22:39:17.397Z,65.50
2018-10-09T22:43:21.139Z,65.80
2018-10-09T22:47:24.854Z,65.70
2018-10-09T22:51:28.690Z,65.70
2018-10-09T22:55:32.390Z,66.00
2018-10-09T22:59:36.125Z,65.90
2018-10-09T23:03:39.862Z,65.20
2018-10-09T23:07:43.553Z,64.80
2018-10-09T23:11:47.277Z,65.90
2018-10-09T23:15:51.021Z,65.90
2018-10-09T23:19:54.761Z,65.80
2018-10-09T23:23:58.509Z,65.80
2018-10-09T23:28:02.284Z,65.80
2018-10-09T23:32:06.066Z,66.20
2018-10-09T23:36:09.845Z,66.00
2018-10-09T23:40:13.550Z,66.10
2018-10-09T23:44:17.252Z,65.80
2018-10-09T23:48:20.982Z,65.90
2018-10-09T23:52:24.711Z,65.80
2018-10-09T23:56:28.445Z,65.90
